Historyczne dane pomiarowe

Dodano dane terminowe – wersja testowa.

Dane z okresu 1951-2019

Wersja bazy: 1.34 [2019-03-16, lista zmian], aktualizacja planowana na 2019-04-15

Dane meteo z obszaru Polski uzyskane na podstawie danych udostępnionych przez Instytut Meteorologii i Gospodarki Wodnej – Państwowy Instytut Badawczy.

 

Wybierz Datę:    

       

TemperaturaWilgotnośćWiatrCiśnienieOpadyŚniegCzas trwania zjawisk
 Stacja t tx tn tng RH VA  wxwx mslp ppp RRR   cm mm wxwxwxwxwxwxwx
1987-08-14 14.5 21.0 7.5 6.4 84.8- 6.7 1.0---- 4.3------------
1987-08-13 12.3 18.6 8.5 6.4 95.5- 7.3 0.7---- 0.9------------
1987-08-12 10.8 14.0 8.2 6.4 95.8- 7.7 2.3---- 4.7------------
1987-08-11 13.2 18.0 11.5 11.2 83.5- 6.7 2.7---- 0.0------------
1987-08-10 13.9 17.9 12.6 11.8 92.5- 8.0 0.3---- 6.9------------
1987-08-09 16.3 21.6 10.0 7.8 78.5- 5.7 1.0---- 1.1------------
1987-08-08 13.9 20.8 6.8 4.5 75.8- 3.7 1.3---- 0.1------------
1987-08-07 13.1 18.5 10.0 9.2 81.3- 4.7 2.7---- 0.0------------
1987-08-06 12.5 17.5 8.2 6.6 83.8- 7.0 1.7---- 0.6------------
1987-08-05 12.6 18.2 7.0 4.9 82.5- 3.7 2.7---- 0.0------------
1987-08-04 13.4 20.0 8.5 6.7 84.8- 6.0 1.7---- 0.0------------
1987-08-03 13.6 18.0 9.6 8.4 83.8- 6.7 1.3---- 12.6------------
1987-08-02 15.6 19.0 12.5 12.0 80.5- 5.0 2.3---- 0.0------------
1987-08-01 15.4 20.0 11.5 9.5 88.3- 8.0 2.3---- 7.8------------
1987-07-31 14.6 18.0 12.0 10.5 94.0- 7.7 1.7---- 15.2------------
1987-07-30 15.6 20.5 10.2 8.5 79.5- 6.7 1.0---- 0.0------------
1987-07-29 13.5 18.6 11.2 11.0 89.3- 7.0 1.7---- 0.9------------
1987-07-28 14.0 19.8 10.6 10.5 82.0- 7.3 2.7---- 3.6------------
1987-07-27 12.1 16.5 7.5 5.4 78.5- 5.0 4.0---- 4.0------------
1987-07-26 14.1 19.0 11.0 13.1 84.0- 6.7 1.3---- 0.0------------
1987-07-25 17.8 22.0 14.5 12.3 83.8- 3.0 2.0---- 0.0------------
1987-07-24 20.5 26.6 14.6 13.6 80.5- 3.3 1.3---- 0.0------------
1987-07-23 21.0 25.8 16.5 15.3 85.3- 4.0 1.3---- 0.0------------
1987-07-22 20.0 25.5 13.8 13.3 83.5- 5.3 1.0---- 0.0------------
1987-07-21 18.7 23.1 16.0 15.6 87.8- 5.3 0.7---- 0.0------------
1987-07-20 17.2 24.5 13.4 13.5 84.3- 8.0 3.3---- 14.1------------
1987-07-19 18.4 24.0 11.6 10.6 70.3- 2.0 5.3---- 13.4------------
1987-07-18 19.7 24.5 14.5 13.7 70.8- 2.7 5.7---- 0.0------------
1987-07-17 18.3 24.0 12.5 11.5 75.3- 5.7 4.3---- 0.0------------
1987-07-16 17.2 22.9 10.0 8.0 73.3- 4.3 3.0---- 0.0------------
1987-07-15 15.0 21.5 6.8 4.9 74.0- 1.7 3.0---- 0.0------------
1987-07-14 13.9 18.2 9.2 7.1 84.3- 6.0 3.0---- 0.0------------
1987-07-13 15.1 19.6 11.5 9.4 85.5- 5.7 2.0---- 2.3------------
1987-07-12 15.4 17.6 12.6 12.7 96.8- 7.7 2.3---- 8.6------------
1987-07-11 11.7 15.7 7.7 5.4 94.0- 7.7 1.7---- 10.9------------
1987-07-10 13.8 18.0 10.0 8.2 78.0- 4.7 4.7---- 2.1------------
1987-07-09 17.3 25.1 15.0 15.1 90.0- 7.3 2.7---- 1.9------------
1987-07-08 22.8 28.7 16.0 12.0 73.5- 3.0 2.0---- 2.5------------
1987-07-07 20.5 27.6 12.0 9.0 76.0- 0.3 0.7---- 0.0------------
1987-07-06 17.5 24.2 8.0 6.1 72.8- 0.7 2.3---- 0.0------------
1987-07-05 15.4 22.0 8.8 8.0 83.3- 4.0 2.0---- 0.0------------
1987-07-04 16.0 20.6 9.6 8.0 78.8- 3.3 3.7---- 0.0------------
1987-07-03 16.2 21.5 10.5 6.4 73.0- 1.0 1.0---- 0.0------------
1987-07-02 18.0 23.0 14.5 14.6 73.0- 3.3 2.0---- 0.0------------
1987-07-01 24.7 30.7 20.2 18.4 77.5- 4.0 2.0---- 0.0------------
1987-06-30 22.3 28.0 18.2 17.8 81.5- 2.7 0.3---- 0.0------------
1987-06-29 16.3 22.8 7.4 5.1 79.8- 5.3 2.3---- 0.0------------
1987-06-28 14.4 19.0 12.0 9.2 90.3- 5.3 2.0---- 2.8------------
1987-06-27 18.0 20.6 15.5 13.9 84.8- 5.7 1.7---- 0.7------------
1987-06-26 15.4 20.6 7.8 6.1 81.0- 6.0 1.7---- 0.2------------
1987-06-25 12.4 16.9 11.0 9.5 93.3- 8.0 1.7---- 7.7------------
1987-06-24 16.8 20.6 12.7 12.2 81.0- 2.7 2.0---- 2.3------------
1987-06-23 17.1 24.5 11.2 14.6 80.8- 6.0 1.3---- 30.3------------
1987-06-22 18.6 24.0 11.4 9.0 67.0- 2.7 1.0---- 0.0------------
1987-06-21 17.4 23.0 10.4 8.6 67.0- 1.3 3.0---- 0.0------------
1987-06-20 15.9 22.4 8.5 6.1 65.3- 2.0 1.3---- 0.0------------
1987-06-19 11.4 17.4 7.0 5.4 84.3- 5.7 2.3---- 0.0------------
1987-06-18 11.6 19.0 6.0 2.3 77.0- 5.3 2.7---- 0.2------------
1987-06-17 12.3 16.0 10.4 9.2 81.5- 7.3 2.7---- 0.0------------
1987-06-16 14.7 22.0 10.0 12.6 93.3- 8.0 4.0---- 6.1------------
1141.6 ms

 

Źródłem pochodzenia danych jest Instytut Meteorologii i Gospodarki Wodnej – Państwowy Instytut Badawczy. Dane Instytutu Meteorologii i Gospodarki Wodnej – Państwowego Instytutu Badawczego zostały przetworzone.

Dane źródłowe można odnaleźć na stronie https://dane.imgw.pl